sensor_id;sensor_type;location;lat;lon;timestamp;pressure;altitude;pressure_sealevel;temperature;humidity
34674;BME280;20879;55.668;37.858;2024-03-23T00:56:39;98832.50;;;1.69;81.29
34674;BME280;20879;55.668;37.858;2024-03-23T01:01:52;98825.69;;;1.72;80.65
34674;BME280;20879;55.668;37.858;2024-03-23T01:07:01;98824.88;;;1.80;80.11
34674;BME280;20879;55.668;37.858;2024-03-23T01:12:08;98816.41;;;1.85;80.81
34674;BME280;20879;55.668;37.858;2024-03-23T01:17:16;98799.34;;;1.80;81.30
34674;BME280;20879;55.668;37.858;2024-03-23T01:22:26;98774.66;;;1.72;80.99
34674;BME280;20879;55.668;37.858;2024-03-23T01:27:47;98784.06;;;1.86;81.52
34674;BME280;20879;55.668;37.858;2024-03-23T01:32:57;98789.22;;;1.92;82.02
34674;BME280;20879;55.668;37.858;2024-03-23T01:38:13;98777.28;;;1.88;80.82
34674;BME280;20879;55.668;37.858;2024-03-23T01:43:26;98765.34;;;1.87;81.52
34674;BME280;20879;55.668;37.858;2024-03-23T01:48:34;98760.28;;;1.93;81.99
34674;BME280;20879;55.668;37.858;2024-03-23T01:53:47;98764.56;;;1.99;81.32
34674;BME280;20879;55.668;37.858;2024-03-23T01:59:01;98757.72;;;1.95;81.89
34674;BME280;20879;55.668;37.858;2024-03-23T02:04:11;98743.25;;;1.89;81.39
34674;BME280;20879;55.668;37.858;2024-03-23T02:09:19;98724.53;;;1.90;82.03
34674;BME280;20879;55.668;37.858;2024-03-23T02:14:29;98735.56;;;1.86;82.74
34674;BME280;20879;55.668;37.858;2024-03-23T02:19:35;98718.56;;;1.86;82.14
34674;BME280;20879;55.668;37.858;2024-03-23T02:24:47;98709.16;;;1.76;82.60
34674;BME280;20879;55.668;37.858;2024-03-23T02:29:57;98707.44;;;1.66;83.14
34674;BME280;20879;55.668;37.858;2024-03-23T02:35:07;98698.88;;;1.64;83.13
34674;BME280;20879;55.668;37.858;2024-03-23T02:40:16;98687.00;;;1.66;83.59
34674;BME280;20879;55.668;37.858;2024-03-23T02:45:29;98679.41;;;1.81;83.31
34674;BME280;20879;55.668;37.858;2024-03-23T02:50:36;98661.53;;;1.81;83.49
34674;BME280;20879;55.668;37.858;2024-03-23T02:55:50;98645.38;;;1.87;84.24
34674;BME280;20879;55.668;37.858;2024-03-23T03:00:57;98642.81;;;1.87;83.48
34674;BME280;20879;55.668;37.858;2024-03-23T03:06:05;98635.19;;;1.91;83.82
34674;BME280;20879;55.668;37.858;2024-03-23T03:11:14;98626.69;;;1.99;84.20
34674;BME280;20879;55.668;37.858;2024-03-23T03:16:24;98621.56;;;1.97;84.54
34674;BME280;20879;55.668;37.858;2024-03-23T03:21:30;98612.25;;;2.05;84.54
34674;BME280;20879;55.668;37.858;2024-03-23T03:26:48;98597.75;;;2.07;84.63
34674;BME280;20879;55.668;37.858;2024-03-23T03:31:56;98596.91;;;2.08;84.51
34674;BME280;20879;55.668;37.858;2024-03-23T03:37:05;98584.16;;;2.08;85.20
34674;BME280;20879;55.668;37.858;2024-03-23T03:42:14;98568.81;;;2.19;85.21
34674;BME280;20879;55.668;37.858;2024-03-23T03:47:20;98566.25;;;2.21;85.12
34674;BME280;20879;55.668;37.858;2024-03-23T03:52:31;98573.09;;;2.19;85.27
34674;BME280;20879;55.668;37.858;2024-03-23T03:57:42;98563.72;;;2.25;85.46
34674;BME280;20879;55.668;37.858;2024-03-23T04:02:49;98545.84;;;2.30;84.91
34674;BME280;20879;55.668;37.858;2024-03-23T04:08:02;98539.00;;;2.41;85.30
34674;BME280;20879;55.668;37.858;2024-03-23T04:13:14;98537.31;;;2.45;85.38
34674;BME280;20879;55.668;37.858;2024-03-23T04:18:24;98529.66;;;2.42;85.17
34674;BME280;20879;55.668;37.858;2024-03-23T04:23:31;98530.47;;;2.52;85.87
34674;BME280;20879;55.668;37.858;2024-03-23T04:28:48;98520.25;;;2.61;85.54
34674;BME280;20879;55.668;37.858;2024-03-23T04:33:58;98502.34;;;2.66;85.28
34674;BME280;20879;55.668;37.858;2024-03-23T04:39:03;98499.78;;;2.64;85.45
34674;BME280;20879;55.668;37.858;2024-03-23T04:44:15;98487.00;;;2.66;85.87
34674;BME280;20879;55.668;37.858;2024-03-23T04:49:22;98481.03;;;2.68;85.87
34674;BME280;20879;55.668;37.858;2024-03-23T04:55:04;98475.00;;;2.86;85.78
34674;BME280;20879;55.668;37.858;2024-03-23T05:00:13;98469.81;;;3.06;85.44
34674;BME280;20879;55.668;37.858;2024-03-23T05:05:34;98471.50;;;3.07;85.69
34674;BME280;20879;55.668;37.858;2024-03-23T05:10:53;98462.13;;;3.09;85.96
34674;BME280;20879;55.668;37.858;2024-03-23T05:16:04;98450.09;;;3.24;86.03
34674;BME280;20879;55.668;37.858;2024-03-23T05:21:23;98458.59;;;3.27;85.97
34674;BME280;20879;55.668;37.858;2024-03-23T05:26:30;98461.09;;;3.40;85.53
34674;BME280;20879;55.668;37.858;2024-03-23T05:31:40;98460.16;;;3.52;86.07
34674;BME280;20879;55.668;37.858;2024-03-23T05:36:51;98392.91;;;3.28;85.56
34674;BME280;20879;55.668;37.858;2024-03-23T05:41:59;98436.97;;;3.68;85.36
34674;BME280;20879;55.668;37.858;2024-03-23T05:47:09;98425.78;;;3.82;85.48
34674;BME280;20879;55.668;37.858;2024-03-23T05:52:30;98426.69;;;3.79;85.42
34674;BME280;20879;55.668;37.858;2024-03-23T05:57:35;98418.28;;;3.63;85.77
34674;BME280;20879;55.668;37.858;2024-03-23T06:02:46;98407.16;;;3.64;86.69
34674;BME280;20879;55.668;37.858;2024-03-23T06:08:01;98402.94;;;3.62;86.58
34674;BME280;20879;55.668;37.858;2024-03-23T06:13:08;98408.78;;;3.75;86.97
34674;BME280;20879;55.668;37.858;2024-03-23T06:18:17;98409.50;;;3.88;87.08
34674;BME280;20879;55.668;37.858;2024-03-23T06:23:24;98382.97;;;3.96;87.26
34674;BME280;20879;55.668;37.858;2024-03-23T06:28:30;98377.91;;;3.90;87.14
34674;BME280;20879;55.668;37.858;2024-03-23T06:33:37;98368.56;;;3.86;88.10
34674;BME280;20879;55.668;37.858;2024-03-23T06:38:46;98369.56;;;3.71;88.70
34674;BME280;20879;55.668;37.858;2024-03-23T06:43:55;98366.03;;;3.83;88.23
34674;BME280;20879;55.668;37.858;2024-03-23T06:49:03;98359.09;;;3.94;88.51
34674;BME280;20879;55.668;37.858;2024-03-23T06:59:34;98350.22;;;4.23;87.52
34674;BME280;20879;55.668;37.858;2024-03-23T07:04:44;98345.16;;;4.18;88.67
34674;BME280;20879;55.668;37.858;2024-03-23T07:09:49;98323.81;;;4.19;88.54
34674;BME280;20879;55.668;37.858;2024-03-23T07:14:58;98332.16;;;4.35;88.37
34674;BME280;20879;55.668;37.858;2024-03-23T07:20:11;98312.78;;;4.14;88.79
34674;BME280;20879;55.668;37.858;2024-03-23T07:25:22;98326.88;;;4.48;88.92
34674;BME280;20879;55.668;37.858;2024-03-23T07:30:34;98320.91;;;4.47;88.69
34674;BME280;20879;55.668;37.858;2024-03-23T07:35:41;98315.75;;;4.49;89.12
34674;BME280;20879;55.668;37.858;2024-03-23T07:41:05;98317.53;;;4.45;89.64
34674;BME280;20879;55.668;37.858;2024-03-23T07:46:11;98303.06;;;4.41;89.14
34674;BME280;20879;55.668;37.858;2024-03-23T07:51:24;98303.16;;;4.32;90.19
34674;BME280;20879;55.668;37.858;2024-03-23T07:56:30;98298.88;;;4.34;89.94
34674;BME280;20879;55.668;37.858;2024-03-23T08:01:41;98308.22;;;4.38;90.44
34674;BME280;20879;55.668;37.858;2024-03-23T08:06:50;98283.28;;;4.49;89.89
34674;BME280;20879;55.668;37.858;2024-03-23T08:12:05;98292.84;;;4.38;90.48
34674;BME280;20879;55.668;37.858;2024-03-23T08:17:12;98288.50;;;4.43;90.31
34674;BME280;20879;55.668;37.858;2024-03-23T08:22:30;98270.41;;;4.55;90.49
34674;BME280;20879;55.668;37.858;2024-03-23T08:27:38;98290.94;;;4.51;90.74
34674;BME280;20879;55.668;37.858;2024-03-23T08:32:48;98273.69;;;4.62;91.48
34674;BME280;20879;55.668;37.858;2024-03-23T08:38:00;98271.56;;;4.92;90.61
34674;BME280;20879;55.668;37.858;2024-03-23T08:43:05;98270.03;;;4.80;90.48
34674;BME280;20879;55.668;37.858;2024-03-23T08:48:12;98253.63;;;4.90;90.49
34674;BME280;20879;55.668;37.858;2024-03-23T08:53:31;98249.38;;;4.89;90.93
34674;BME280;20879;55.668;37.858;2024-03-23T08:58:50;98256.81;;;5.05;90.46
34674;BME280;20879;55.668;37.858;2024-03-23T09:04:02;98243.06;;;5.09;90.29
34674;BME280;20879;55.668;37.858;2024-03-23T09:09:17;98238.69;;;5.16;89.95
34674;BME280;20879;55.668;37.858;2024-03-23T09:14:31;98241.34;;;5.11;90.61
34674;BME280;20879;55.668;37.858;2024-03-23T09:19:35;98218.75;;;5.32;89.48
34674;BME280;20879;55.668;37.858;2024-03-23T09:24:43;98221.41;;;5.27;89.90
34674;BME280;20879;55.668;37.858;2024-03-23T09:29:51;98224.56;;;5.40;89.45
34674;BME280;20879;55.668;37.858;2024-03-23T09:35:04;98213.47;;;5.39;89.08
34674;BME280;20879;55.668;37.858;2024-03-23T09:40:22;98183.75;;;5.26;89.24
34674;BME280;20879;55.668;37.858;2024-03-23T09:45:29;98213.75;;;5.22;89.46
34674;BME280;20879;55.668;37.858;2024-03-23T09:50:41;98194.88;;;5.27;89.64
34674;BME280;20879;55.668;37.858;2024-03-23T09:55:51;98202.53;;;5.28;89.73
34674;BME280;20879;55.668;37.858;2024-03-23T10:01:01;98188.91;;;5.26;89.94
34674;BME280;20879;55.668;37.858;2024-03-23T10:06:09;98205.06;;;5.30;89.97
34674;BME280;20879;55.668;37.858;2024-03-23T10:11:18;98204.94;;;5.36;89.48
34674;BME280;20879;55.668;37.858;2024-03-23T10:16:27;98196.97;;;5.51;89.20
34674;BME280;20879;55.668;37.858;2024-03-23T10:21:35;98182.50;;;5.47;89.42
34674;BME280;20879;55.668;37.858;2024-03-23T10:26:43;98168.00;;;5.46;89.39
34674;BME280;20879;55.668;37.858;2024-03-23T10:31:49;98181.63;;;5.48;89.82
34674;BME280;20879;55.668;37.858;2024-03-23T10:36:56;98184.22;;;5.47;89.92
34674;BME280;20879;55.668;37.858;2024-03-23T10:42:06;98166.22;;;5.48;90.19
34674;BME280;20879;55.668;37.858;2024-03-23T10:47:17;98167.09;;;5.47;89.95
34674;BME280;20879;55.668;37.858;2024-03-23T10:52:22;98166.13;;;5.53;89.80
34674;BME280;20879;55.668;37.858;2024-03-23T10:57:42;98151.66;;;5.49;90.06
34674;BME280;20879;55.668;37.858;2024-03-23T11:02:49;98167.09;;;5.47;90.50
34674;BME280;20879;55.668;37.858;2024-03-23T11:07:55;98152.09;;;5.25;90.61
34674;BME280;20879;55.668;37.858;2024-03-23T11:13:21;98155.19;;;5.43;91.25
34674;BME280;20879;55.668;37.858;2024-03-23T11:18:30;98156.03;;;5.45;90.47
34674;BME280;20879;55.668;37.858;2024-03-23T11:23:36;98155.16;;;5.46;90.53
34674;BME280;20879;55.668;37.858;2024-03-23T11:29:13;98153.06;;;5.64;91.05
34674;BME280;20879;55.668;37.858;2024-03-23T11:34:24;98150.19;;;5.79;90.49
34674;BME280;20879;55.668;37.858;2024-03-23T11:39:29;98130.22;;;5.93;89.90
34674;BME280;20879;55.668;37.858;2024-03-23T11:44:38;98090.41;;;5.72;90.04
34674;BME280;20879;55.668;37.858;2024-03-23T11:49:49;98131.22;;;5.86;90.00
34674;BME280;20879;55.668;37.858;2024-03-23T11:55:03;98127.91;;;5.80;90.35
34674;BME280;20879;55.668;37.858;2024-03-23T12:00:30;98135.13;;;5.62;90.90
34674;BME280;20879;55.668;37.858;2024-03-23T12:05:41;98119.22;;;5.46;91.07
34674;BME280;20879;55.668;37.858;2024-03-23T12:10:49;98123.72;;;5.35;91.58
34674;BME280;20879;55.668;37.858;2024-03-23T12:16:09;98131.34;;;5.38;92.50
34674;BME280;20879;55.668;37.858;2024-03-23T12:21:16;98121.09;;;5.38;91.45
34674;BME280;20879;55.668;37.858;2024-03-23T12:26:31;98130.44;;;5.40;91.58
34674;BME280;20879;55.668;37.858;2024-03-23T12:31:44;98128.66;;;5.44;91.98
34674;BME280;20879;55.668;37.858;2024-03-23T12:36:49;98126.94;;;5.43;92.03
34674;BME280;20879;55.668;37.858;2024-03-23T12:47:23;98119.94;;;5.07;92.27
34674;BME280;20879;55.668;37.858;2024-03-23T12:52:28;98127.53;;;5.14;92.40
34674;BME280;20879;55.668;37.858;2024-03-23T12:57:39;98130.13;;;5.12;93.06
34674;BME280;20879;55.668;37.858;2024-03-23T13:02:56;98118.09;;;5.16;93.70
34674;BME280;20879;55.668;37.858;2024-03-23T13:08:02;98116.53;;;5.07;94.13
34674;BME280;20879;55.668;37.858;2024-03-23T13:13:08;98098.88;;;4.90;94.41
34674;BME280;20879;55.668;37.858;2024-03-23T13:18:18;98118.28;;;5.05;95.33
34674;BME280;20879;55.668;37.858;2024-03-23T13:23:28;98116.78;;;4.93;95.18
34674;BME280;20879;55.668;37.858;2024-03-23T13:28:36;98110.75;;;4.96;95.99
34674;BME280;20879;55.668;37.858;2024-03-23T13:33:54;98108.84;;;5.07;96.10
34674;BME280;20879;55.668;37.858;2024-03-23T13:39:01;98100.31;;;5.05;96.01
34674;BME280;20879;55.668;37.858;2024-03-23T13:44:09;98104.81;;;4.94;95.75
34674;BME280;20879;55.668;37.858;2024-03-23T13:49:31;98100.66;;;4.88;97.22
34674;BME280;20879;55.668;37.858;2024-03-23T13:55:05;98093.69;;;4.93;97.71
34674;BME280;20879;55.668;37.858;2024-03-23T14:00:20;98100.63;;;4.89;97.18
34674;BME280;20879;55.668;37.858;2024-03-23T14:05:28;98091.81;;;5.03;97.35
34674;BME280;20879;55.668;37.858;2024-03-23T14:10:33;98093.56;;;5.01;97.20
34674;BME280;20879;55.668;37.858;2024-03-23T14:15:38;98087.50;;;5.05;97.27
34674;BME280;20879;55.668;37.858;2024-03-23T14:20:56;98090.16;;;5.00;97.74
34674;BME280;20879;55.668;37.858;2024-03-23T14:26:03;98090.94;;;5.04;97.66
34674;BME280;20879;55.668;37.858;2024-03-23T14:31:13;98095.13;;;5.08;97.76
34674;BME280;20879;55.668;37.858;2024-03-23T14:36:20;98088.34;;;5.05;97.89
34674;BME280;20879;55.668;37.858;2024-03-23T14:41:28;98088.47;;;4.98;98.14
34674;BME280;20879;55.668;37.858;2024-03-23T14:46:32;98089.31;;;5.00;98.43
34674;BME280;20879;55.668;37.858;2024-03-23T14:51:52;98088.44;;;5.01;98.57
34674;BME280;20879;55.668;37.858;2024-03-23T14:57:00;98087.56;;;5.00;98.07
34674;BME280;20879;55.668;37.858;2024-03-23T15:02:06;98078.28;;;4.95;98.62
34674;BME280;20879;55.668;37.858;2024-03-23T15:07:15;98089.25;;;5.03;98.96
34674;BME280;20879;55.668;37.858;2024-03-23T15:12:22;98084.91;;;5.05;98.35
34674;BME280;20879;55.668;37.858;2024-03-23T15:17:29;98091.00;;;5.01;98.55
34674;BME280;20879;55.668;37.858;2024-03-23T15:22:44;98082.31;;;5.06;99.24
34674;BME280;20879;55.668;37.858;2024-03-23T15:27:49;98094.34;;;5.04;99.13
34674;BME280;20879;55.668;37.858;2024-03-23T15:33:08;98101.09;;;5.10;99.52
34674;BME280;20879;55.668;37.858;2024-03-23T15:38:17;98101.13;;;5.08;99.44
34674;BME280;20879;55.668;37.858;2024-03-23T15:43:24;98106.13;;;5.15;99.67
34674;BME280;20879;55.668;37.858;2024-03-23T15:48:34;98109.59;;;5.12;99.18
34674;BME280;20879;55.668;37.858;2024-03-23T15:53:48;98109.59;;;5.12;99.55
34674;BME280;20879;55.668;37.858;2024-03-23T15:58:56;98117.38;;;5.07;99.17
34674;BME280;20879;55.668;37.858;2024-03-23T16:04:13;98124.19;;;5.10;99.64
34674;BME280;20879;55.668;37.858;2024-03-23T16:09:26;98124.22;;;5.08;99.52
34674;BME280;20879;55.668;37.858;2024-03-23T16:14:34;98121.56;;;5.13;99.26
34674;BME280;20879;55.668;37.858;2024-03-23T16:19:51;98130.19;;;5.07;99.37
34674;BME280;20879;55.668;37.858;2024-03-23T16:25:10;98134.63;;;5.01;100.00
34674;BME280;20879;55.668;37.858;2024-03-23T16:30:16;98122.78;;;4.94;99.47
34674;BME280;20879;55.668;37.858;2024-03-23T16:35:29;98147.31;;;5.07;99.71
34674;BME280;20879;55.668;37.858;2024-03-23T16:40:53;98142.31;;;5.01;100.00
34674;BME280;20879;55.668;37.858;2024-03-23T16:45:59;98175.66;;;5.01;100.00
34674;BME280;20879;55.668;37.858;2024-03-23T16:51:16;98164.44;;;5.05;100.00
34674;BME280;20879;55.668;37.858;2024-03-23T16:56:27;98159.44;;;4.99;100.00
34674;BME280;20879;55.668;37.858;2024-03-23T17:01:41;98151.72;;;5.00;100.00
34674;BME280;20879;55.668;37.858;2024-03-23T17:06:45;98156.19;;;4.90;100.00
34674;BME280;20879;55.668;37.858;2024-03-23T17:11:54;98141.97;;;4.69;100.00
34674;BME280;20879;55.668;37.858;2024-03-23T17:17:06;98163.97;;;4.83;100.00
34674;BME280;20879;55.668;37.858;2024-03-23T17:22:16;98163.19;;;4.79;100.00
34674;BME280;20879;55.668;37.858;2024-03-23T17:27:36;98176.16;;;4.71;100.00
34674;BME280;20879;55.668;37.858;2024-03-23T17:32:47;98173.63;;;4.67;100.00
34674;BME280;20879;55.668;37.858;2024-03-23T17:38:06;98162.66;;;4.60;100.00
34674;BME280;20879;55.668;37.858;2024-03-23T17:43:16;98169.50;;;4.58;100.00
34674;BME280;20879;55.668;37.858;2024-03-23T17:48:35;98187.72;;;4.41;100.00
34674;BME280;20879;55.668;37.858;2024-03-23T17:53:40;98199.03;;;4.26;100.00
34674;BME280;20879;55.668;37.858;2024-03-23T17:58:51;98201.81;;;4.09;100.00
34674;BME280;20879;55.668;37.858;2024-03-23T18:04:01;98207.13;;;3.97;100.00
34674;BME280;20879;55.668;37.858;2024-03-23T18:09:20;98221.88;;;3.78;100.00
34674;BME280;20879;55.668;37.858;2024-03-23T18:14:43;98219.50;;;3.61;100.00
34674;BME280;20879;55.668;37.858;2024-03-23T18:19:52;98234.94;;;3.52;100.00
34674;BME280;20879;55.668;37.858;2024-03-23T18:25:06;98241.00;;;3.43;100.00
34674;BME280;20879;55.668;37.858;2024-03-23T18:30:29;98235.16;;;3.30;100.00
34674;BME280;20879;55.668;37.858;2024-03-23T18:35:34;98235.25;;;3.19;100.00
34674;BME280;20879;55.668;37.858;2024-03-23T18:40:44;98181.88;;;2.84;100.00
34674;BME280;20879;55.668;37.858;2024-03-23T18:45:51;98248.13;;;3.08;100.00
34674;BME280;20879;55.668;37.858;2024-03-23T18:51:03;98248.97;;;3.12;100.00
34674;BME280;20879;55.668;37.858;2024-03-23T18:56:11;98249.00;;;3.06;100.00
34674;BME280;20879;55.668;37.858;2024-03-23T19:01:25;98245.59;;;3.05;100.00
34674;BME280;20879;55.668;37.858;2024-03-23T19:06:34;98255.88;;;3.02;100.00
34674;BME280;20879;55.668;37.858;2024-03-23T19:11:44;98268.72;;;2.96;100.00
34674;BME280;20879;55.668;37.858;2024-03-23T19:16:53;98271.25;;;2.99;100.00
34674;BME280;20879;55.668;37.858;2024-03-23T19:22:12;98224.56;;;2.71;100.00
34674;BME280;20879;55.668;37.858;2024-03-23T19:27:20;98286.63;;;2.90;100.00
34674;BME280;20879;55.668;37.858;2024-03-23T19:32:28;98281.53;;;2.88;100.00
34674;BME280;20879;55.668;37.858;2024-03-23T19:37:40;98283.28;;;2.82;100.00
34674;BME280;20879;55.668;37.858;2024-03-23T19:42:53;98293.44;;;2.91;100.00
34674;BME280;20879;55.668;37.858;2024-03-23T19:48:06;98306.22;;;2.94;100.00
34674;BME280;20879;55.668;37.858;2024-03-23T19:53:12;98308.00;;;2.86;100.00
34674;BME280;20879;55.668;37.858;2024-03-23T19:58:17;98285.91;;;2.71;100.00
34674;BME280;20879;55.668;37.858;2024-03-23T20:03:35;98307.94;;;2.90;100.00
34674;BME280;20879;55.668;37.858;2024-03-23T20:08:46;98324.09;;;2.94;100.00
34674;BME280;20879;55.668;37.858;2024-03-23T20:13:56;98323.34;;;2.84;100.00
34674;BME280;20879;55.668;37.858;2024-03-23T20:19:09;98327.69;;;2.68;100.00
34674;BME280;20879;55.668;37.858;2024-03-23T20:24:15;98321.84;;;2.48;100.00
34674;BME280;20879;55.668;37.858;2024-03-23T20:29:30;98299.81;;;2.19;100.00
34674;BME280;20879;55.668;37.858;2024-03-23T20:34:42;98327.00;;;2.31;100.00
34674;BME280;20879;55.668;37.858;2024-03-23T20:39:57;98313.38;;;2.35;100.00
34674;BME280;20879;55.668;37.858;2024-03-23T20:45:12;98322.72;;;2.43;100.00
34674;BME280;20879;55.668;37.858;2024-03-23T20:50:25;98326.94;;;2.44;100.00
34674;BME280;20879;55.668;37.858;2024-03-23T20:55:39;98329.53;;;2.38;100.00
34674;BME280;20879;55.668;37.858;2024-03-23T21:00:46;98327.75;;;2.53;100.00
34674;BME280;20879;55.668;37.858;2024-03-23T21:06:07;98331.06;;;2.70;100.00
34674;BME280;20879;55.668;37.858;2024-03-23T21:11:18;98324.06;;;2.97;100.00
34674;BME280;20879;55.668;37.858;2024-03-23T21:16:30;98320.56;;;3.15;100.00
34674;BME280;20879;55.668;37.858;2024-03-23T21:21:44;98326.41;;;3.26;100.00
34674;BME280;20879;55.668;37.858;2024-03-23T21:26:57;98324.69;;;3.31;100.00
34674;BME280;20879;55.668;37.858;2024-03-23T21:32:08;98332.41;;;3.27;100.00
34674;BME280;20879;55.668;37.858;2024-03-23T21:37:18;98325.59;;;3.26;100.00
34674;BME280;20879;55.668;37.858;2024-03-23T21:42:28;98347.78;;;3.25;100.00
34674;BME280;20879;55.668;37.858;2024-03-23T21:47:39;98358.75;;;3.35;100.00
34674;BME280;20879;55.668;37.858;2024-03-23T21:52:46;98373.19;;;3.45;100.00
34674;BME280;20879;55.668;37.858;2024-03-23T21:58:02;98364.69;;;3.43;100.00
34674;BME280;20879;55.668;37.858;2024-03-23T22:03:14;98345.06;;;3.42;100.00
34674;BME280;20879;55.668;37.858;2024-03-23T22:08:24;98353.69;;;3.30;100.00
34674;BME280;20879;55.668;37.858;2024-03-23T22:13:30;98340.91;;;3.29;100.00
34674;BME280;20879;55.668;37.858;2024-03-23T22:18:53;98349.47;;;3.23;100.00
34674;BME280;20879;55.668;37.858;2024-03-23T22:24:04;98343.38;;;3.37;100.00
34674;BME280;20879;55.668;37.858;2024-03-23T22:29:13;98344.41;;;3.15;100.00
34674;BME280;20879;55.668;37.858;2024-03-23T22:34:18;98354.78;;;2.95;100.00
34674;BME280;20879;55.668;37.858;2024-03-23T22:39:32;98363.31;;;2.96;100.00
34674;BME280;20879;55.668;37.858;2024-03-23T22:44:42;98357.44;;;2.78;100.00
34674;BME280;20879;55.668;37.858;2024-03-23T22:49:54;98366.88;;;2.67;100.00
34674;BME280;20879;55.668;37.858;2024-03-23T22:55:11;98366.06;;;2.65;100.00
34674;BME280;20879;55.668;37.858;2024-03-23T23:00:20;98351.56;;;2.61;100.00
34674;BME280;20879;55.668;37.858;2024-03-23T23:05:29;98348.91;;;2.79;100.00
34674;BME280;20879;55.668;37.858;2024-03-23T23:10:54;98356.53;;;2.90;100.00
34674;BME280;20879;55.668;37.858;2024-03-23T23:16:05;98360.72;;;3.01;100.00
34674;BME280;20879;55.668;37.858;2024-03-23T23:21:18;98357.25;;;3.09;100.00
34674;BME280;20879;55.668;37.858;2024-03-23T23:26:26;98367.34;;;3.31;100.00
34674;BME280;20879;55.668;37.858;2024-03-23T23:31:34;98356.25;;;3.30;100.00
34674;BME280;20879;55.668;37.858;2024-03-23T23:36:40;98363.00;;;3.38;100.00
34674;BME280;20879;55.668;37.858;2024-03-23T23:41:48;98362.91;;;3.52;100.00
34674;BME280;20879;55.668;37.858;2024-03-23T23:46:57;98353.41;;;3.63;100.00
34674;BME280;20879;55.668;37.858;2024-03-23T23:52:15;98344.84;;;3.67;100.00
34674;BME280;20879;55.668;37.858;2024-03-23T23:57:23;98363.59;;;3.72;100.00
